sensor_id;sensor_type;location;lat;lon;timestamp;pressure;altitude;pressure_sealevel;temperature;humidity
75594;BME280;64176;49.156;7.810;2023-04-06T00:01:27;99485.16;;;-0.08;70.88
75594;BME280;64176;49.156;7.810;2023-04-06T00:04:13;99465.34;;;-0.15;70.83
75594;BME280;64176;49.156;7.810;2023-04-06T00:06:57;99485.31;;;-0.05;71.18
75594;BME280;64176;49.156;7.810;2023-04-06T00:09:42;99484.63;;;-0.02;70.91
75594;BME280;64176;49.156;7.810;2023-04-06T00:12:26;99481.91;;;-0.21;71.74
75594;BME280;64176;49.156;7.810;2023-04-06T00:15:11;99472.09;;;-0.15;71.35
75594;BME280;64176;49.156;7.810;2023-04-06T00:17:55;99464.97;;;-0.22;71.22
75594;BME280;64176;49.156;7.810;2023-04-06T00:20:39;99476.03;;;-0.20;71.88
75594;BME280;64176;49.156;7.810;2023-04-06T00:23:24;99464.09;;;-0.23;71.70
75594;BME280;64176;49.156;7.810;2023-04-06T00:26:08;99476.69;;;-0.24;71.97
75594;BME280;64176;49.156;7.810;2023-04-06T00:28:54;99456.16;;;-0.45;72.39
75594;BME280;64176;49.156;7.810;2023-04-06T00:31:38;99478.44;;;-0.40;72.97
75594;BME280;64176;49.156;7.810;2023-04-06T00:34:22;99473.94;;;-0.45;73.31
75594;BME280;64176;49.156;7.810;2023-04-06T00:37:06;99471.50;;;-0.75;74.92
75594;BME280;64176;49.156;7.810;2023-04-06T00:39:53;99452.16;;;-0.89;74.96
75594;BME280;64176;49.156;7.810;2023-04-06T00:42:41;99466.13;;;-0.81;74.82
75594;BME280;64176;49.156;7.810;2023-04-06T00:45:25;99448.34;;;-0.64;74.06
75594;BME280;64176;49.156;7.810;2023-04-06T00:48:11;99443.78;;;-0.55;73.89
75594;BME280;64176;49.156;7.810;2023-04-06T00:50:57;99450.97;;;-0.63;73.16
75594;BME280;64176;49.156;7.810;2023-04-06T00:53:49;99438.00;;;-0.69;73.70
75594;BME280;64176;49.156;7.810;2023-04-06T00:56:42;99457.09;;;-0.59;72.88
75594;BME280;64176;49.156;7.810;2023-04-06T00:59:27;99449.97;;;-0.50;73.02
75594;BME280;64176;49.156;7.810;2023-04-06T01:02:12;99443.06;;;-0.69;73.87
75594;BME280;64176;49.156;7.810;2023-04-06T01:05:05;99451.78;;;-0.64;74.30
75594;BME280;64176;49.156;7.810;2023-04-06T01:08:09;99449.72;;;-0.55;74.14
75594;BME280;64176;49.156;7.810;2023-04-06T01:11:01;99447.91;;;-0.57;74.05
75594;BME280;64176;49.156;7.810;2023-04-06T01:13:48;99450.19;;;-0.62;73.34
75594;BME280;64176;49.156;7.810;2023-04-06T01:16:44;99445.91;;;-0.63;73.30
75594;BME280;64176;49.156;7.810;2023-04-06T01:19:41;99444.16;;;-0.64;73.37
75594;BME280;64176;49.156;7.810;2023-04-06T01:22:32;99443.50;;;-0.92;74.79
75594;BME280;64176;49.156;7.810;2023-04-06T01:25:22;99433.69;;;-0.86;74.88
75594;BME280;64176;49.156;7.810;2023-04-06T01:28:20;99433.44;;;-0.75;74.45
75594;BME280;64176;49.156;7.810;2023-04-06T01:31:30;99423.47;;;-0.71;73.89
75594;BME280;64176;49.156;7.810;2023-04-06T01:34:15;99442.19;;;-0.69;74.14
75594;BME280;64176;49.156;7.810;2023-04-06T01:37:03;99432.34;;;-0.80;74.28
75594;BME280;64176;49.156;7.810;2023-04-06T01:39:48;99420.69;;;-0.92;74.99
75594;BME280;64176;49.156;7.810;2023-04-06T01:42:42;99429.59;;;-0.99;75.79
75594;BME280;64176;49.156;7.810;2023-04-06T01:45:29;99409.19;;;-1.02;75.12
75594;BME280;64176;49.156;7.810;2023-04-06T01:48:18;99424.88;;;-0.93;75.13
75594;BME280;64176;49.156;7.810;2023-04-06T01:51:07;99426.81;;;-0.89;74.78
75594;BME280;64176;49.156;7.810;2023-04-06T01:54:01;99431.13;;;-0.86;74.60
75594;BME280;64176;49.156;7.810;2023-04-06T01:56:55;99421.38;;;-0.95;74.94
75594;BME280;64176;49.156;7.810;2023-04-06T01:59:48;99411.41;;;-0.92;75.27
75594;BME280;64176;49.156;7.810;2023-04-06T02:02:39;99415.53;;;-0.94;75.00
75594;BME280;64176;49.156;7.810;2023-04-06T02:05:30;99411.84;;;-0.99;75.75
75594;BME280;64176;49.156;7.810;2023-04-06T02:08:18;99411.38;;;-1.08;75.18
75594;BME280;64176;49.156;7.810;2023-04-06T02:11:04;99421.00;;;-1.02;74.98
75594;BME280;64176;49.156;7.810;2023-04-06T02:13:57;99411.84;;;-1.15;75.30
75594;BME280;64176;49.156;7.810;2023-04-06T02:16:46;99426.50;;;-1.10;74.98
75594;BME280;64176;49.156;7.810;2023-04-06T02:19:30;99402.88;;;-1.25;75.54
75594;BME280;64176;49.156;7.810;2023-04-06T02:22:14;99424.44;;;-1.17;75.85
75594;BME280;64176;49.156;7.810;2023-04-06T02:24:58;99418.69;;;-1.29;75.60
75594;BME280;64176;49.156;7.810;2023-04-06T02:27:46;99419.06;;;-1.23;76.12
75594;BME280;64176;49.156;7.810;2023-04-06T02:30:30;99422.28;;;-1.25;76.27
75594;BME280;64176;49.156;7.810;2023-04-06T02:33:20;99401.94;;;-1.41;76.47
75594;BME280;64176;49.156;7.810;2023-04-06T02:36:05;99425.63;;;-1.41;76.91
75594;BME280;64176;49.156;7.810;2023-04-06T02:38:52;99422.28;;;-1.25;75.94
75594;BME280;64176;49.156;7.810;2023-04-06T02:41:38;99417.53;;;-1.19;75.27
75594;BME280;64176;49.156;7.810;2023-04-06T02:44:23;99417.44;;;-1.21;75.08
75594;BME280;64176;49.156;7.810;2023-04-06T02:47:08;99405.31;;;-1.26;75.70
75594;BME280;64176;49.156;7.810;2023-04-06T02:49:56;99416.75;;;-1.18;75.79
75594;BME280;64176;49.156;7.810;2023-04-06T02:52:41;99410.47;;;-1.25;76.50
75594;BME280;64176;49.156;7.810;2023-04-06T02:55:27;99413.75;;;-1.42;76.85
75594;BME280;64176;49.156;7.810;2023-04-06T02:58:11;99412.75;;;-1.29;76.19
75594;BME280;64176;49.156;7.810;2023-04-06T03:01:05;99401.59;;;-1.33;76.19
75594;BME280;64176;49.156;7.810;2023-04-06T03:03:50;99410.81;;;-1.50;76.03
75594;BME280;64176;49.156;7.810;2023-04-06T03:06:40;99407.38;;;-1.35;75.67
75594;BME280;64176;49.156;7.810;2023-04-06T03:09:41;99382.31;;;-1.45;75.70
75594;BME280;64176;49.156;7.810;2023-04-06T03:12:28;99406.22;;;-1.71;77.61
75594;BME280;64176;49.156;7.810;2023-04-06T03:15:31;99404.81;;;-1.66;77.06
75594;BME280;64176;49.156;7.810;2023-04-06T03:18:31;99403.28;;;-1.48;76.71
75594;BME280;64176;49.156;7.810;2023-04-06T03:21:16;99393.84;;;-1.51;76.09
75594;BME280;64176;49.156;7.810;2023-04-06T03:24:09;99406.00;;;-1.45;76.37
75594;BME280;64176;49.156;7.810;2023-04-06T03:26:53;99415.41;;;-1.42;76.23
75594;BME280;64176;49.156;7.810;2023-04-06T03:29:37;99411.34;;;-1.55;76.91
75594;BME280;64176;49.156;7.810;2023-04-06T03:32:25;99411.34;;;-1.55;76.89
75594;BME280;64176;49.156;7.810;2023-04-06T03:35:12;99412.06;;;-1.72;76.96
75594;BME280;64176;49.156;7.810;2023-04-06T03:37:56;99422.97;;;-2.17;78.38
75594;BME280;64176;49.156;7.810;2023-04-06T03:40:42;99416.38;;;-2.01;79.49
75594;BME280;64176;49.156;7.810;2023-04-06T03:43:26;99420.03;;;-1.81;78.67
75594;BME280;64176;49.156;7.810;2023-04-06T03:46:13;99419.16;;;-1.81;78.51
75594;BME280;64176;49.156;7.810;2023-04-06T03:49:00;99427.72;;;-1.79;78.64
75594;BME280;64176;49.156;7.810;2023-04-06T03:51:48;99394.50;;;-1.84;78.28
75594;BME280;64176;49.156;7.810;2023-04-06T03:54:32;99418.50;;;-1.63;78.13
75594;BME280;64176;49.156;7.810;2023-04-06T03:57:17;99422.66;;;-1.79;77.76
75594;BME280;64176;49.156;7.810;2023-04-06T04:00:06;99422.63;;;-1.94;78.96
75594;BME280;64176;49.156;7.810;2023-04-06T04:02:59;99396.81;;;-2.03;78.85
75594;BME280;64176;49.156;7.810;2023-04-06T04:05:44;99429.38;;;-1.80;78.14
75594;BME280;64176;49.156;7.810;2023-04-06T04:08:29;99426.66;;;-1.83;78.78
75594;BME280;64176;49.156;7.810;2023-04-06T04:11:16;99425.88;;;-1.67;78.42
75594;BME280;64176;49.156;7.810;2023-04-06T04:14:01;99425.44;;;-1.90;78.57
75594;BME280;64176;49.156;7.810;2023-04-06T04:16:45;99436.34;;;-1.76;78.43
75594;BME280;64176;49.156;7.810;2023-04-06T04:19:31;99436.97;;;-1.80;78.77
75594;BME280;64176;49.156;7.810;2023-04-06T04:22:18;99440.19;;;-1.83;77.90
75594;BME280;64176;49.156;7.810;2023-04-06T04:25:02;99447.78;;;-1.83;77.37
75594;BME280;64176;49.156;7.810;2023-04-06T04:27:52;99434.09;;;-2.01;78.44
75594;BME280;64176;49.156;7.810;2023-04-06T04:30:39;99443.66;;;-2.25;79.93
75594;BME280;64176;49.156;7.810;2023-04-06T04:33:26;99454.50;;;-1.98;78.41
75594;BME280;64176;49.156;7.810;2023-04-06T04:36:13;99444.19;;;-1.86;77.99
75594;BME280;64176;49.156;7.810;2023-04-06T04:39:00;99445.16;;;-2.13;78.27
75594;BME280;64176;49.156;7.810;2023-04-06T04:41:52;99453.50;;;-2.29;79.63
75594;BME280;64176;49.156;7.810;2023-04-06T04:44:39;99450.03;;;-2.16;78.67
75594;BME280;64176;49.156;7.810;2023-04-06T04:47:26;99439.56;;;-2.08;79.00
75594;BME280;64176;49.156;7.810;2023-04-06T04:50:13;99448.75;;;-2.10;79.25
75594;BME280;64176;49.156;7.810;2023-04-06T04:53:01;99445.69;;;-2.04;78.71
75594;BME280;64176;49.156;7.810;2023-04-06T04:55:49;99452.50;;;-2.03;78.60
75594;BME280;64176;49.156;7.810;2023-04-06T04:58:34;99455.66;;;-1.93;77.97
75594;BME280;64176;49.156;7.810;2023-04-06T05:01:22;99455.22;;;-2.00;78.83
75594;BME280;64176;49.156;7.810;2023-04-06T05:04:09;99448.31;;;-2.03;78.73
75594;BME280;64176;49.156;7.810;2023-04-06T05:07:15;99451.44;;;-2.07;79.28
75594;BME280;64176;49.156;7.810;2023-04-06T05:10:02;99454.88;;;-1.92;78.49
75594;BME280;64176;49.156;7.810;2023-04-06T05:12:52;99463.44;;;-1.90;78.57
75594;BME280;64176;49.156;7.810;2023-04-06T05:15:38;99455.56;;;-1.94;78.28
75594;BME280;64176;49.156;7.810;2023-04-06T05:18:35;99458.56;;;-2.29;79.19
75594;BME280;64176;49.156;7.810;2023-04-06T05:21:20;99463.47;;;-2.32;79.89
75594;BME280;64176;49.156;7.810;2023-04-06T05:24:15;99456.91;;;-2.29;79.91
75594;BME280;64176;49.156;7.810;2023-04-06T05:27:01;99458.59;;;-2.14;79.47
75594;BME280;64176;49.156;7.810;2023-04-06T05:29:46;99455.88;;;-2.17;79.02
75594;BME280;64176;49.156;7.810;2023-04-06T05:32:30;99461.09;;;-2.29;80.70
75594;BME280;64176;49.156;7.810;2023-04-06T05:35:14;99463.94;;;-2.10;79.99
75594;BME280;64176;49.156;7.810;2023-04-06T05:38:02;99464.47;;;-2.01;79.63
75594;BME280;64176;49.156;7.810;2023-04-06T05:40:46;99463.25;;;-1.93;79.18
75594;BME280;64176;49.156;7.810;2023-04-06T05:43:35;99456.63;;;-1.91;79.28
75594;BME280;64176;49.156;7.810;2023-04-06T05:46:20;99465.06;;;-1.75;78.38
75594;BME280;64176;49.156;7.810;2023-04-06T05:49:06;99460.09;;;-1.74;78.71
75594;BME280;64176;49.156;7.810;2023-04-06T05:51:51;99462.09;;;-1.54;77.86
75594;BME280;64176;49.156;7.810;2023-04-06T05:54:36;99462.28;;;-1.51;77.24
75594;BME280;64176;49.156;7.810;2023-04-06T05:57:23;99463.16;;;-1.50;77.18
75594;BME280;64176;49.156;7.810;2023-04-06T06:00:10;99465.06;;;-1.61;77.86
75594;BME280;64176;49.156;7.810;2023-04-06T06:02:57;99462.09;;;-1.54;77.74
75594;BME280;64176;49.156;7.810;2023-04-06T06:05:45;99464.56;;;-1.55;78.34
75594;BME280;64176;49.156;7.810;2023-04-06T06:08:38;99457.47;;;-1.61;78.39
75594;BME280;64176;49.156;7.810;2023-04-06T06:11:31;99447.84;;;-1.37;77.55
75594;BME280;64176;49.156;7.810;2023-04-06T06:14:17;99460.91;;;-1.29;77.42
75594;BME280;64176;49.156;7.810;2023-04-06T06:17:04;99462.25;;;-1.05;76.68
75594;BME280;64176;49.156;7.810;2023-04-06T06:19:49;99465.00;;;-0.86;76.67
75594;BME280;64176;49.156;7.810;2023-04-06T06:22:34;99452.16;;;-0.89;76.60
75594;BME280;64176;49.156;7.810;2023-04-06T06:25:21;99459.53;;;-0.77;76.34
75594;BME280;64176;49.156;7.810;2023-04-06T06:28:07;99459.16;;;-0.52;75.64
75594;BME280;64176;49.156;7.810;2023-04-06T06:30:51;99454.41;;;-0.46;75.27
75594;BME280;64176;49.156;7.810;2023-04-06T06:33:40;99456.41;;;-0.57;75.58
75594;BME280;64176;49.156;7.810;2023-04-06T06:36:29;99448.38;;;-0.48;75.32
75594;BME280;64176;49.156;7.810;2023-04-06T06:39:15;99461.59;;;-0.21;74.90
75594;BME280;64176;49.156;7.810;2023-04-06T06:42:05;99427.94;;;-0.01;72.95
75594;BME280;64176;49.156;7.810;2023-04-06T06:45:12;99455.56;;;0.27;72.03
75594;BME280;64176;49.156;7.810;2023-04-06T06:48:02;99456.84;;;0.53;71.49
75594;BME280;64176;49.156;7.810;2023-04-06T06:50:47;99453.69;;;0.58;71.30
75594;BME280;64176;49.156;7.810;2023-04-06T06:53:32;99436.22;;;0.64;70.39
75594;BME280;64176;49.156;7.810;2023-04-06T06:56:16;99448.41;;;0.71;71.16
75594;BME280;64176;49.156;7.810;2023-04-06T06:59:05;99457.47;;;0.84;70.63
75594;BME280;64176;49.156;7.810;2023-04-06T07:01:49;99454.22;;;1.24;70.00
75594;BME280;64176;49.156;7.810;2023-04-06T07:04:34;99452.03;;;1.51;69.34
75594;BME280;64176;49.156;7.810;2023-04-06T07:07:20;99446.31;;;1.56;69.14
75594;BME280;64176;49.156;7.810;2023-04-06T07:10:06;99438.69;;;1.75;68.32
75594;BME280;64176;49.156;7.810;2023-04-06T07:12:52;99441.66;;;2.05;68.01
75594;BME280;64176;49.156;7.810;2023-04-06T07:15:36;99437.88;;;2.37;66.63
75594;BME280;64176;49.156;7.810;2023-04-06T07:18:23;99437.13;;;2.61;64.89
75594;BME280;64176;49.156;7.810;2023-04-06T07:21:09;99438.06;;;2.63;64.82
75594;BME280;64176;49.156;7.810;2023-04-06T07:23:54;99439.06;;;3.11;63.41
75594;BME280;64176;49.156;7.810;2023-04-06T07:26:38;99410.47;;;3.19;63.56
75594;BME280;64176;49.156;7.810;2023-04-06T07:29:22;99435.59;;;3.55;62.01
75594;BME280;64176;49.156;7.810;2023-04-06T07:32:07;99428.66;;;3.75;61.59
75594;BME280;64176;49.156;7.810;2023-04-06T07:34:55;99431.09;;;3.95;60.73
75594;BME280;64176;49.156;7.810;2023-04-06T07:37:42;99434.31;;;4.15;58.84
75594;BME280;64176;49.156;7.810;2023-04-06T07:40:26;99412.16;;;4.16;58.86
75594;BME280;64176;49.156;7.810;2023-04-06T07:43:14;99424.66;;;4.07;57.60
75594;BME280;64176;49.156;7.810;2023-04-06T07:45:59;99418.47;;;4.79;56.94
75594;BME280;64176;49.156;7.810;2023-04-06T07:48:45;99420.13;;;5.05;54.76
75594;BME280;64176;49.156;7.810;2023-04-06T07:51:29;99414.25;;;5.69;53.56
75594;BME280;64176;49.156;7.810;2023-04-06T07:54:13;99406.00;;;6.81;50.33
75594;BME280;64176;49.156;7.810;2023-04-06T07:56:57;99404.91;;;7.11;49.38
75594;BME280;64176;49.156;7.810;2023-04-06T07:59:42;99406.97;;;7.69;48.41
75594;BME280;64176;49.156;7.810;2023-04-06T08:02:28;99400.78;;;7.59;47.90
75594;BME280;64176;49.156;7.810;2023-04-06T08:05:16;99412.00;;;7.61;48.28
75594;BME280;64176;49.156;7.810;2023-04-06T08:08:01;99409.94;;;7.45;49.33
75594;BME280;64176;49.156;7.810;2023-04-06T08:10:46;99408.25;;;7.05;51.31
75594;BME280;64176;49.156;7.810;2023-04-06T08:13:33;99407.19;;;6.60;52.12
75594;BME280;64176;49.156;7.810;2023-04-06T08:16:19;99406.16;;;6.89;51.82
75594;BME280;64176;49.156;7.810;2023-04-06T08:19:08;99396.50;;;6.79;51.07
75594;BME280;64176;49.156;7.810;2023-04-06T08:21:53;99406.81;;;7.18;52.01
75594;BME280;64176;49.156;7.810;2023-04-06T08:24:39;99409.38;;;7.19;52.64
75594;BME280;64176;49.156;7.810;2023-04-06T08:27:23;99409.91;;;7.44;51.35
75594;BME280;64176;49.156;7.810;2023-04-06T08:30:10;99411.13;;;7.61;49.23
75594;BME280;64176;49.156;7.810;2023-04-06T08:32:57;99415.44;;;7.63;49.00
75594;BME280;64176;49.156;7.810;2023-04-06T08:35:44;99413.63;;;7.58;48.72
75594;BME280;64176;49.156;7.810;2023-04-06T08:38:30;99403.19;;;7.52;48.81
75594;BME280;64176;49.156;7.810;2023-04-06T08:41:15;99412.41;;;7.84;47.26
75594;BME280;64176;49.156;7.810;2023-04-06T08:44:03;99407.47;;;7.95;47.52
75594;BME280;64176;49.156;7.810;2023-04-06T08:46:49;99405.09;;;8.06;46.80
75594;BME280;64176;49.156;7.810;2023-04-06T08:49:34;99404.16;;;8.02;46.94
75594;BME280;64176;49.156;7.810;2023-04-06T08:52:21;99407.47;;;7.95;46.89
75594;BME280;64176;49.156;7.810;2023-04-06T08:55:08;99393.00;;;8.01;46.95
75594;BME280;64176;49.156;7.810;2023-04-06T08:58:03;99392.22;;;8.06;46.21
75594;BME280;64176;49.156;7.810;2023-04-06T09:00:50;99400.25;;;8.24;46.29
75594;BME280;64176;49.156;7.810;2023-04-06T09:03:38;99400.03;;;8.12;45.23
75594;BME280;64176;49.156;7.810;2023-04-06T09:06:25;99383.84;;;8.17;44.87
75594;BME280;64176;49.156;7.810;2023-04-06T09:09:14;99389.34;;;8.37;44.71
75594;BME280;64176;49.156;7.810;2023-04-06T09:11:59;99383.56;;;8.50;43.53
75594;BME280;64176;49.156;7.810;2023-04-06T09:14:49;99392.78;;;8.92;42.52
75594;BME280;64176;49.156;7.810;2023-04-06T09:17:34;99382.94;;;9.30;41.94
75594;BME280;64176;49.156;7.810;2023-04-06T09:20:24;99384.72;;;9.32;41.38
75594;BME280;64176;49.156;7.810;2023-04-06T09:23:20;99395.53;;;9.07;41.89
75594;BME280;64176;49.156;7.810;2023-04-06T09:26:12;99390.91;;;8.82;42.58
75594;BME280;64176;49.156;7.810;2023-04-06T09:28:59;99399.78;;;9.02;42.04
75594;BME280;64176;49.156;7.810;2023-04-06T09:31:47;99394.75;;;9.11;41.65
75594;BME280;64176;49.156;7.810;2023-04-06T09:34:33;99389.63;;;9.14;41.51
75594;BME280;64176;49.156;7.810;2023-04-06T09:37:18;99382.91;;;9.25;40.22
75594;BME280;64176;49.156;7.810;2023-04-06T09:40:05;99385.81;;;9.53;40.50
75594;BME280;64176;49.156;7.810;2023-04-06T09:42:50;99371.44;;;9.74;40.20
75594;BME280;64176;49.156;7.810;2023-04-06T09:45:39;99373.13;;;9.71;38.92
75594;BME280;64176;49.156;7.810;2023-04-06T09:48:26;99367.22;;;9.81;39.21
75594;BME280;64176;49.156;7.810;2023-04-06T09:51:13;99375.16;;;10.02;37.04
75594;BME280;64176;49.156;7.810;2023-04-06T09:54:02;99351.94;;;10.02;35.77
75594;BME280;64176;49.156;7.810;2023-04-06T09:57:08;99361.72;;;10.35;36.79
75594;BME280;64176;49.156;7.810;2023-04-06T10:00:05;99358.56;;;10.76;35.98
75594;BME280;64176;49.156;7.810;2023-04-06T10:03:26;99363.63;;;10.64;35.81
75594;BME280;64176;49.156;7.810;2023-04-06T10:06:14;99374.69;;;10.43;34.91
75594;BME280;64176;49.156;7.810;2023-04-06T10:09:04;99353.72;;;10.11;33.66
75594;BME280;64176;49.156;7.810;2023-04-06T10:11:51;99362.44;;;10.19;34.00
75594;BME280;64176;49.156;7.810;2023-04-06T10:14:36;99359.38;;;10.67;35.29
75594;BME280;64176;49.156;7.810;2023-04-06T10:17:20;99353.31;;;10.65;33.93
75594;BME280;64176;49.156;7.810;2023-04-06T10:20:13;99353.41;;;10.80;33.31
75594;BME280;64176;49.156;7.810;2023-04-06T10:23:09;99350.63;;;10.53;33.52
75594;BME280;64176;49.156;7.810;2023-04-06T10:26:00;99346.44;;;10.67;32.95
75594;BME280;64176;49.156;7.810;2023-04-06T10:28:48;99357.72;;;10.83;32.92
75594;BME280;64176;49.156;7.810;2023-04-06T10:31:40;99355.97;;;10.76;33.08
75594;BME280;64176;49.156;7.810;2023-04-06T10:34:34;99353.41;;;10.83;32.75
75594;BME280;64176;49.156;7.810;2023-04-06T10:37:21;99345.59;;;10.74;32.52
75594;BME280;64176;49.156;7.810;2023-04-06T10:40:06;99347.41;;;10.86;32.98
75594;BME280;64176;49.156;7.810;2023-04-06T10:42:54;99353.53;;;11.00;32.79
75594;BME280;64176;49.156;7.810;2023-04-06T10:45:40;99357.78;;;10.89;32.82
75594;BME280;64176;49.156;7.810;2023-04-06T10:48:24;99350.75;;;10.73;32.81
75594;BME280;64176;49.156;7.810;2023-04-06T10:51:14;99349.13;;;10.87;32.67
75594;BME280;64176;49.156;7.810;2023-04-06T10:54:01;99339.50;;;10.63;32.59
75594;BME280;64176;49.156;7.810;2023-04-06T10:56:47;99350.94;;;10.99;33.76
75594;BME280;64176;49.156;7.810;2023-04-06T10:59:31;99346.59;;;10.94;33.75
75594;BME280;64176;49.156;7.810;2023-04-06T11:02:21;99348.34;;;11.00;33.22
75594;BME280;64176;49.156;7.810;2023-04-06T11:05:06;99345.69;;;10.88;33.63
75594;BME280;64176;49.156;7.810;2023-04-06T11:07:50;99348.31;;;10.97;34.37
75594;BME280;64176;49.156;7.810;2023-04-06T11:10:34;99344.03;;;11.01;33.62
75594;BME280;64176;49.156;7.810;2023-04-06T11:13:21;99340.72;;;11.26;33.90
75594;BME280;64176;49.156;7.810;2023-04-06T11:16:05;99340.75;;;11.38;34.02
75594;BME280;64176;49.156;7.810;2023-04-06T11:18:53;99322.56;;;11.20;33.26
75594;BME280;64176;49.156;7.810;2023-04-06T11:21:39;99334.66;;;11.27;33.40
75594;BME280;64176;49.156;7.810;2023-04-06T11:24:25;99331.19;;;11.19;33.42
75594;BME280;64176;49.156;7.810;2023-04-06T11:27:09;99336.38;;;11.22;33.61
75594;BME280;64176;49.156;7.810;2023-04-06T11:29:56;99314.09;;;11.68;35.37
75594;BME280;64176;49.156;7.810;2023-04-06T11:32:45;99317.44;;;11.38;33.28
75594;BME280;64176;49.156;7.810;2023-04-06T11:35:33;99311.44;;;11.36;33.37
75594;BME280;64176;49.156;7.810;2023-04-06T11:38:23;99307.16;;;11.61;33.20
75594;BME280;64176;49.156;7.810;2023-04-06T11:41:07;99313.16;;;11.40;33.03
75594;BME280;64176;49.156;7.810;2023-04-06T11:43:54;99274.41;;;11.58;33.92
75594;BME280;64176;49.156;7.810;2023-04-06T11:46:51;99296.88;;;11.76;33.99
75594;BME280;64176;49.156;7.810;2023-04-06T11:49:40;99308.09;;;11.83;33.53
75594;BME280;64176;49.156;7.810;2023-04-06T11:52:27;99299.44;;;11.75;33.37
75594;BME280;64176;49.156;7.810;2023-04-06T11:55:13;99295.94;;;11.62;33.16
75594;BME280;64176;49.156;7.810;2023-04-06T11:58:00;99291.66;;;11.70;34.05
75594;BME280;64176;49.156;7.810;2023-04-06T12:00:44;99282.22;;;12.07;33.61
75594;BME280;64176;49.156;7.810;2023-04-06T12:03:29;99277.91;;;12.11;31.91
75594;BME280;64176;49.156;7.810;2023-04-06T12:06:13;99278.78;;;11.93;32.29
75594;BME280;64176;49.156;7.810;2023-04-06T12:09:00;99283.94;;;11.87;31.81
75594;BME280;64176;49.156;7.810;2023-04-06T12:11:46;99281.34;;;11.90;31.89
75594;BME280;64176;49.156;7.810;2023-04-06T12:14:30;99282.22;;;11.96;32.88
75594;BME280;64176;49.156;7.810;2023-04-06T12:17:14;99277.06;;;12.15;32.04
75594;BME280;64176;49.156;7.810;2023-04-06T12:19:58;99274.44;;;12.36;32.13
75594;BME280;64176;49.156;7.810;2023-04-06T12:22:45;99260.59;;;12.43;32.54
75594;BME280;64176;49.156;7.810;2023-04-06T12:25:31;99265.78;;;12.28;32.08
75594;BME280;64176;49.156;7.810;2023-04-06T12:28:20;99269.25;;;12.10;32.64
75594;BME280;64176;49.156;7.810;2023-04-06T12:31:25;99266.66;;;12.06;32.62
75594;BME280;64176;49.156;7.810;2023-04-06T12:34:20;99257.19;;;12.09;32.57
75594;BME280;64176;49.156;7.810;2023-04-06T12:37:07;99256.31;;;12.15;33.18
75594;BME280;64176;49.156;7.810;2023-04-06T12:39:53;99258.03;;;12.23;33.32
75594;BME280;64176;49.156;7.810;2023-04-06T12:42:39;99259.75;;;12.17;32.83
75594;BME280;64176;49.156;7.810;2023-04-06T12:45:27;99252.00;;;12.08;32.88
75594;BME280;64176;49.156;7.810;2023-04-06T12:48:13;99251.09;;;12.34;33.17
75594;BME280;64176;49.156;7.810;2023-04-06T15:23:33;99235.47;;;11.17;40.66
75594;BME280;64176;49.156;7.810;2023-04-06T15:26:20;99245.81;;;11.13;41.64
75594;BME280;64176;49.156;7.810;2023-04-06T15:29:09;99250.97;;;11.10;42.54
75594;BME280;64176;49.156;7.810;2023-04-06T15:31:56;99247.47;;;10.97;43.12
75594;BME280;64176;49.156;7.810;2023-04-06T15:34:41;99250.88;;;10.87;43.80
75594;BME280;64176;49.156;7.810;2023-04-06T15:37:25;99259.41;;;10.65;44.85
75594;BME280;64176;49.156;7.810;2023-04-06T15:40:11;99268.88;;;10.63;46.42
75594;BME280;64176;49.156;7.810;2023-04-06T15:42:59;99261.88;;;10.49;46.45
75594;BME280;64176;49.156;7.810;2023-04-06T15:45:43;99273.84;;;10.32;49.04
75594;BME280;64176;49.156;7.810;2023-04-06T15:48:28;99268.69;;;10.32;47.45
75594;BME280;64176;49.156;7.810;2023-04-06T15:51:15;99269.47;;;10.20;49.38
75594;BME280;64176;49.156;7.810;2023-04-06T15:54:04;99270.13;;;9.98;51.13
75594;BME280;64176;49.156;7.810;2023-04-06T15:56:49;99253.78;;;9.98;51.81
75594;BME280;64176;49.156;7.810;2023-04-06T15:59:33;99255.56;;;10.03;51.20
75594;BME280;64176;49.156;7.810;2023-04-06T16:02:22;99283.28;;;10.24;51.06
75594;BME280;64176;49.156;7.810;2023-04-06T16:05:07;99284.91;;;10.14;50.97
75594;BME280;64176;49.156;7.810;2023-04-06T16:07:51;99298.50;;;9.92;51.56
75594;BME280;64176;49.156;7.810;2023-04-06T16:10:38;99291.56;;;9.90;52.11
75594;BME280;64176;49.156;7.810;2023-04-06T16:13:24;99288.13;;;9.89;53.09
75594;BME280;64176;49.156;7.810;2023-04-06T16:16:11;99291.56;;;9.88;53.87
75594;BME280;64176;49.156;7.810;2023-04-06T16:18:55;99289.66;;;9.69;54.62
75594;BME280;64176;49.156;7.810;2023-04-06T16:21:39;99290.53;;;9.72;55.46
75594;BME280;64176;49.156;7.810;2023-04-06T16:24:23;99284.47;;;9.66;55.60
75594;BME280;64176;49.156;7.810;2023-04-06T16:27:07;99292.16;;;9.61;56.13
75594;BME280;64176;49.156;7.810;2023-04-06T16:29:51;99294.78;;;9.64;57.37
75594;BME280;64176;49.156;7.810;2023-04-06T16:32:41;99298.88;;;9.45;58.45
75594;BME280;64176;49.156;7.810;2023-04-06T16:35:26;99299.50;;;9.23;59.40
75594;BME280;64176;49.156;7.810;2023-04-06T16:38:11;99292.44;;;9.05;61.13
75594;BME280;64176;49.156;7.810;2023-04-06T16:41:01;99293.28;;;9.07;61.60
75594;BME280;64176;49.156;7.810;2023-04-06T16:43:50;99299.19;;;8.97;62.19
75594;BME280;64176;49.156;7.810;2023-04-06T16:46:40;99301.03;;;9.07;63.30
75594;BME280;64176;49.156;7.810;2023-04-06T16:49:26;99296.38;;;8.79;64.01
75594;BME280;64176;49.156;7.810;2023-04-06T16:52:15;99296.56;;;8.93;63.65
75594;BME280;64176;49.156;7.810;2023-04-06T16:54:59;99287.81;;;8.80;64.52
75594;BME280;64176;49.156;7.810;2023-04-06T16:57:46;99294.81;;;8.90;65.09
75594;BME280;64176;49.156;7.810;2023-04-06T17:00:31;99288.84;;;8.94;64.59
75594;BME280;64176;49.156;7.810;2023-04-06T17:03:15;99281.06;;;8.90;65.80
75594;BME280;64176;49.156;7.810;2023-04-06T17:05:59;99294.91;;;8.98;66.27
75594;BME280;64176;49.156;7.810;2023-04-06T17:08:45;99297.38;;;8.90;65.88
75594;BME280;64176;49.156;7.810;2023-04-06T17:11:32;99298.16;;;8.85;65.85
75594;BME280;64176;49.156;7.810;2023-04-06T17:14:15;99291.09;;;8.68;68.30
75594;BME280;64176;49.156;7.810;2023-04-06T17:17:02;99296.28;;;8.70;67.94
75594;BME280;64176;49.156;7.810;2023-04-06T17:19:46;99302.19;;;8.64;68.52
75594;BME280;64176;49.156;7.810;2023-04-06T17:22:30;99297.81;;;8.59;68.84